sensor_id;sensor_type;location;lat;lon;timestamp;pressure;altitude;pressure_sealevel;temperature;humidity
6132;BME280;3097;42.692;23.278;2023-04-28T00:02:15;95234.75;;;8.29;55.50
6132;BME280;3097;42.692;23.278;2023-04-28T00:04:41;95239.72;;;8.30;55.91
6132;BME280;3097;42.692;23.278;2023-04-28T00:07:06;95248.84;;;8.33;55.90
6132;BME280;3097;42.692;23.278;2023-04-28T00:09:32;95244.06;;;8.30;56.48
6132;BME280;3097;42.692;23.278;2023-04-28T00:11:57;95241.88;;;8.20;56.66
6132;BME280;3097;42.692;23.278;2023-04-28T00:14:24;95225.06;;;8.04;56.87
6132;BME280;3097;42.692;23.278;2023-04-28T00:16:50;95235.94;;;8.06;56.63
6132;BME280;3097;42.692;23.278;2023-04-28T00:19:15;95135.78;;;7.27;56.95
6132;BME280;3097;42.692;23.278;2023-04-28T00:21:41;95232.75;;;7.91;56.94
6132;BME280;3097;42.692;23.278;2023-04-28T00:24:06;95225.25;;;7.83;57.10
6132;BME280;3097;42.692;23.278;2023-04-28T00:26:32;95244.44;;;7.94;57.41
6132;BME280;3097;42.692;23.278;2023-04-28T00:28:57;95241.84;;;8.00;57.02
6132;BME280;3097;42.692;23.278;2023-04-28T00:31:23;95246.81;;;8.02;56.91
6132;BME280;3097;42.692;23.278;2023-04-28T00:33:48;95250.72;;;7.91;57.29
6132;BME280;3097;42.692;23.278;2023-04-28T00:36:14;95255.47;;;7.88;57.39
6132;BME280;3097;42.692;23.278;2023-04-28T00:38:39;95257.81;;;7.83;57.68
6132;BME280;3097;42.692;23.278;2023-04-28T00:41:05;95265.94;;;7.86;57.63
6132;BME280;3097;42.692;23.278;2023-04-28T00:43:30;95264.34;;;7.85;57.76
6132;BME280;3097;42.692;23.278;2023-04-28T00:45:56;95267.50;;;7.74;57.67
6132;BME280;3097;42.692;23.278;2023-04-28T00:48:22;95257.22;;;7.74;57.27
6132;BME280;3097;42.692;23.278;2023-04-28T00:50:48;95239.41;;;7.59;57.33
6132;BME280;3097;42.692;23.278;2023-04-28T00:53:14;95262.91;;;7.69;57.93
6132;BME280;3097;42.692;23.278;2023-04-28T00:55:40;95272.00;;;7.72;58.20
6132;BME280;3097;42.692;23.278;2023-04-28T00:58:06;95257.16;;;7.61;58.01
6132;BME280;3097;42.692;23.278;2023-04-28T01:00:32;95271.75;;;7.54;58.28
6132;BME280;3097;42.692;23.278;2023-04-28T01:02:58;95219.59;;;7.27;58.12
6132;BME280;3097;42.692;23.278;2023-04-28T01:05:27;95266.63;;;7.54;58.16
6132;BME280;3097;42.692;23.278;2023-04-28T01:07:53;95273.75;;;7.58;58.05
6132;BME280;3097;42.692;23.278;2023-04-28T01:10:19;95258.72;;;7.49;58.40
6132;BME280;3097;42.692;23.278;2023-04-28T01:12:45;95271.56;;;7.55;58.09
6132;BME280;3097;42.692;23.278;2023-04-28T01:15:15;95276.84;;;7.47;58.52
6132;BME280;3097;42.692;23.278;2023-04-28T01:17:41;95277.28;;;7.51;58.22
6132;BME280;3097;42.692;23.278;2023-04-28T01:20:07;95280.03;;;7.49;58.15
6132;BME280;3097;42.692;23.278;2023-04-28T01:22:32;95272.50;;;7.41;58.78
6132;BME280;3097;42.692;23.278;2023-04-28T01:24:57;95282.56;;;7.36;58.88
6132;BME280;3097;42.692;23.278;2023-04-28T01:27:24;95277.94;;;7.25;59.31
6132;BME280;3097;42.692;23.278;2023-04-28T01:29:50;95274.19;;;7.21;58.92
6132;BME280;3097;42.692;23.278;2023-04-28T01:32:15;95274.75;;;7.16;59.36
6132;BME280;3097;42.692;23.278;2023-04-28T01:34:41;95276.38;;;7.24;58.93
6132;BME280;3097;42.692;23.278;2023-04-28T01:37:06;95274.81;;;7.29;58.81
6132;BME280;3097;42.692;23.278;2023-04-28T01:39:32;95272.97;;;7.17;58.81
6132;BME280;3097;42.692;23.278;2023-04-28T01:41:59;95254.25;;;7.16;58.60
6132;BME280;3097;42.692;23.278;2023-04-28T01:44:24;95280.34;;;7.26;58.16
6132;BME280;3097;42.692;23.278;2023-04-28T01:46:49;95280.34;;;7.26;58.42
6132;BME280;3097;42.692;23.278;2023-04-28T01:49:15;95279.72;;;7.24;58.65
6132;BME280;3097;42.692;23.278;2023-04-28T01:51:40;95277.91;;;7.18;58.61
6132;BME280;3097;42.692;23.278;2023-04-28T01:54:07;95282.63;;;7.15;58.77
6132;BME280;3097;42.692;23.278;2023-04-28T01:56:32;95274.53;;;7.11;59.11
6132;BME280;3097;42.692;23.278;2023-04-28T01:58:57;95283.78;;;7.06;59.14
6132;BME280;3097;42.692;23.278;2023-04-28T02:01:23;95273.88;;;6.96;59.01
6132;BME280;3097;42.692;23.278;2023-04-28T02:03:48;95283.31;;;6.95;59.28
6132;BME280;3097;42.692;23.278;2023-04-28T02:06:14;95264.88;;;6.79;59.37
6132;BME280;3097;42.692;23.278;2023-04-28T02:08:39;95280.34;;;6.92;59.18
6132;BME280;3097;42.692;23.278;2023-04-28T02:11:05;95279.59;;;6.98;58.90
6132;BME280;3097;42.692;23.278;2023-04-28T02:13:30;95283.31;;;6.95;59.32
6132;BME280;3097;42.692;23.278;2023-04-28T02:15:59;95285.84;;;6.89;59.60
6132;BME280;3097;42.692;23.278;2023-04-28T02:18:25;95280.88;;;6.81;59.61
6132;BME280;3097;42.692;23.278;2023-04-28T02:20:50;95289.53;;;6.80;59.86
6132;BME280;3097;42.692;23.278;2023-04-28T02:23:16;95247.38;;;6.54;59.66
6132;BME280;3097;42.692;23.278;2023-04-28T02:25:41;95285.78;;;6.76;59.77
6132;BME280;3097;42.692;23.278;2023-04-28T02:28:07;95294.59;;;6.73;59.84
6132;BME280;3097;42.692;23.278;2023-04-28T02:30:32;95287.44;;;6.62;60.25
6132;BME280;3097;42.692;23.278;2023-04-28T02:32:57;95299.66;;;6.60;60.50
6132;BME280;3097;42.692;23.278;2023-04-28T02:35:23;95290.91;;;6.54;60.47
6132;BME280;3097;42.692;23.278;2023-04-28T02:37:48;95299.22;;;6.56;60.97
6132;BME280;3097;42.692;23.278;2023-04-28T02:40:14;95294.25;;;6.55;60.85
6132;BME280;3097;42.692;23.278;2023-04-28T02:42:40;95291.31;;;6.51;60.94
6132;BME280;3097;42.692;23.278;2023-04-28T02:45:05;95300.63;;;6.59;60.79
6132;BME280;3097;42.692;23.278;2023-04-28T02:47:31;95233.88;;;6.11;60.57
6132;BME280;3097;42.692;23.278;2023-04-28T02:49:56;95304.91;;;6.52;60.88
6132;BME280;3097;42.692;23.278;2023-04-28T02:52:22;95302.53;;;6.50;60.97
6132;BME280;3097;42.692;23.278;2023-04-28T02:54:47;95302.69;;;6.49;61.52
6132;BME280;3097;42.692;23.278;2023-04-28T02:57:13;95307.41;;;6.45;61.83
6132;BME280;3097;42.692;23.278;2023-04-28T02:59:38;95313.88;;;6.41;61.92
6132;BME280;3097;42.692;23.278;2023-04-28T03:02:04;95317.22;;;6.42;62.07
6132;BME280;3097;42.692;23.278;2023-04-28T03:04:29;95317.22;;;6.42;61.70
6132;BME280;3097;42.692;23.278;2023-04-28T03:06:55;95313.25;;;6.39;61.74
6132;BME280;3097;42.692;23.278;2023-04-28T03:09:20;95315.41;;;6.36;61.83
6132;BME280;3097;42.692;23.278;2023-04-28T03:11:45;95318.56;;;6.38;61.68
6132;BME280;3097;42.692;23.278;2023-04-28T03:14:11;95316.00;;;6.38;62.02
6132;BME280;3097;42.692;23.278;2023-04-28T03:16:37;95323.63;;;6.31;62.08
6132;BME280;3097;42.692;23.278;2023-04-28T03:19:02;95324.22;;;6.33;62.47
6132;BME280;3097;42.692;23.278;2023-04-28T03:21:28;95322.22;;;6.29;62.40
6132;BME280;3097;42.692;23.278;2023-04-28T03:23:54;95304.25;;;6.01;62.43
6132;BME280;3097;42.692;23.278;2023-04-28T03:26:19;95331.00;;;6.19;63.10
6132;BME280;3097;42.692;23.278;2023-04-28T03:28:45;95335.94;;;6.21;62.96
6132;BME280;3097;42.692;23.278;2023-04-28T03:31:10;95338.69;;;6.19;62.71
6132;BME280;3097;42.692;23.278;2023-04-28T03:33:37;95351.13;;;6.22;62.24
6132;BME280;3097;42.692;23.278;2023-04-28T03:36:03;95360.41;;;6.24;61.69
6132;BME280;3097;42.692;23.278;2023-04-28T03:38:28;95350.06;;;6.17;61.43
6132;BME280;3097;42.692;23.278;2023-04-28T03:40:53;95354.84;;;6.20;60.92
6132;BME280;3097;42.692;23.278;2023-04-28T03:43:19;95356.91;;;6.31;61.31
6132;BME280;3097;42.692;23.278;2023-04-28T03:45:44;95349.84;;;6.33;60.81
6132;BME280;3097;42.692;23.278;2023-04-28T03:48:10;95358.28;;;6.55;60.05
6132;BME280;3097;42.692;23.278;2023-04-28T03:50:35;95358.25;;;6.48;60.22
6132;BME280;3097;42.692;23.278;2023-04-28T03:53:01;95363.84;;;6.58;59.81
6132;BME280;3097;42.692;23.278;2023-04-28T03:55:26;95369.09;;;6.72;59.61
6132;BME280;3097;42.692;23.278;2023-04-28T03:57:52;95377.78;;;6.77;59.34
6132;BME280;3097;42.692;23.278;2023-04-28T04:00:18;95328.19;;;6.57;58.92
6132;BME280;3097;42.692;23.278;2023-04-28T04:02:43;95378.75;;;6.97;58.56
6132;BME280;3097;42.692;23.278;2023-04-28T04:05:08;95383.31;;;7.02;58.32
6132;BME280;3097;42.692;23.278;2023-04-28T04:07:34;95374.16;;;6.93;58.41
6132;BME280;3097;42.692;23.278;2023-04-28T04:10:02;95382.13;;;6.98;58.21
6132;BME280;3097;42.692;23.278;2023-04-28T04:12:30;95387.09;;;7.06;58.31
6132;BME280;3097;42.692;23.278;2023-04-28T04:14:56;95384.75;;;7.11;57.81
6132;BME280;3097;42.692;23.278;2023-04-28T04:17:21;95376.47;;;7.09;58.27
6132;BME280;3097;42.692;23.278;2023-04-28T04:19:47;95390.94;;;7.23;58.03
6132;BME280;3097;42.692;23.278;2023-04-28T04:22:12;95394.34;;;7.30;57.68
6132;BME280;3097;42.692;23.278;2023-04-28T04:24:38;95388.81;;;7.27;57.76
6132;BME280;3097;42.692;23.278;2023-04-28T04:27:03;95404.06;;;7.35;57.40
6132;BME280;3097;42.692;23.278;2023-04-28T04:29:28;95403.22;;;7.62;56.87
6132;BME280;3097;42.692;23.278;2023-04-28T04:31:57;95408.28;;;7.90;55.35
6132;BME280;3097;42.692;23.278;2023-04-28T04:34:22;95395.94;;;8.20;54.81
6132;BME280;3097;42.692;23.278;2023-04-28T04:36:48;95401.63;;;9.16;52.89
6132;BME280;3097;42.692;23.278;2023-04-28T04:39:13;95398.81;;;10.08;49.91
6132;BME280;3097;42.692;23.278;2023-04-28T04:41:38;95392.75;;;10.72;48.95
6132;BME280;3097;42.692;23.278;2023-04-28T04:44:04;95399.16;;;11.98;46.75
6132;BME280;3097;42.692;23.278;2023-04-28T04:46:30;95399.22;;;13.23;43.81
6132;BME280;3097;42.692;23.278;2023-04-28T04:48:56;95402.16;;;13.73;41.67
6132;BME280;3097;42.692;23.278;2023-04-28T04:51:21;95404.28;;;13.88;43.34
6132;BME280;3097;42.692;23.278;2023-04-28T04:53:46;95409.28;;;14.18;41.39
6132;BME280;3097;42.692;23.278;2023-04-28T04:56:12;95411.09;;;14.74;40.56
6132;BME280;3097;42.692;23.278;2023-04-28T04:58:37;95411.25;;;15.63;38.49
6132;BME280;3097;42.692;23.278;2023-04-28T05:01:03;95420.19;;;16.59;36.67
6132;BME280;3097;42.692;23.278;2023-04-28T05:03:28;95410.47;;;17.72;35.14
6132;BME280;3097;42.692;23.278;2023-04-28T05:05:54;95408.53;;;18.77;32.91
6132;BME280;3097;42.692;23.278;2023-04-28T05:08:20;95407.47;;;19.79;31.70
6132;BME280;3097;42.692;23.278;2023-04-28T05:10:46;95417.47;;;20.96;29.59
6132;BME280;3097;42.692;23.278;2023-04-28T05:13:11;95408.75;;;21.68;27.67
6132;BME280;3097;42.692;23.278;2023-04-28T05:15:36;95385.59;;;21.46;27.32
6132;BME280;3097;42.692;23.278;2023-04-28T05:18:02;95409.09;;;21.85;26.36
6132;BME280;3097;42.692;23.278;2023-04-28T05:20:33;95279.53;;;20.71;26.82
6132;BME280;3097;42.692;23.278;2023-04-28T05:22:59;95416.34;;;21.70;26.91
6132;BME280;3097;42.692;23.278;2023-04-28T05:25:24;95411.16;;;21.88;26.75
6132;BME280;3097;42.692;23.278;2023-04-28T05:27:50;95397.72;;;21.95;25.64
6132;BME280;3097;42.692;23.278;2023-04-28T05:30:15;95413.31;;;22.76;25.18
6132;BME280;3097;42.692;23.278;2023-04-28T05:32:41;95416.84;;;22.00;25.95
6132;BME280;3097;42.692;23.278;2023-04-28T05:35:06;95414.56;;;21.89;24.96
6132;BME280;3097;42.692;23.278;2023-04-28T05:37:32;95409.09;;;21.85;27.10
6132;BME280;3097;42.692;23.278;2023-04-28T05:39:57;95399.69;;;22.32;25.05
6132;BME280;3097;42.692;23.278;2023-04-28T05:42:23;95412.25;;;22.35;25.98
6132;BME280;3097;42.692;23.278;2023-04-28T05:44:48;95409.53;;;22.83;25.45
6132;BME280;3097;42.692;23.278;2023-04-28T05:47:14;95397.88;;;22.27;24.02
6132;BME280;3097;42.692;23.278;2023-04-28T05:49:39;95412.00;;;21.84;26.21
6132;BME280;3097;42.692;23.278;2023-04-28T05:52:05;95416.81;;;21.19;26.25
6132;BME280;3097;42.692;23.278;2023-04-28T05:54:30;95407.22;;;20.55;26.90
6132;BME280;3097;42.692;23.278;2023-04-28T05:56:58;95418.47;;;21.68;25.35
6132;BME280;3097;42.692;23.278;2023-04-28T05:59:23;95421.44;;;22.14;25.12
6132;BME280;3097;42.692;23.278;2023-04-28T06:01:49;95399.88;;;22.35;25.41
6132;BME280;3097;42.692;23.278;2023-04-28T06:04:15;95413.72;;;23.02;26.10
6132;BME280;3097;42.692;23.278;2023-04-28T06:06:40;95402.56;;;23.75;24.36
6132;BME280;3097;42.692;23.278;2023-04-28T06:09:06;95390.16;;;24.94;23.38
6132;BME280;3097;42.692;23.278;2023-04-28T06:11:32;95402.97;;;26.15;22.55
6132;BME280;3097;42.692;23.278;2023-04-28T06:13:57;95407.44;;;26.46;20.77
6132;BME280;3097;42.692;23.278;2023-04-28T06:16:22;95411.63;;;26.38;20.02
6132;BME280;3097;42.692;23.278;2023-04-28T06:18:48;95411.59;;;25.99;20.50
6132;BME280;3097;42.692;23.278;2023-04-28T06:21:15;95418.22;;;25.88;21.74
6132;BME280;3097;42.692;23.278;2023-04-28T06:23:41;95376.25;;;25.77;21.49
6132;BME280;3097;42.692;23.278;2023-04-28T06:26:07;95414.47;;;25.58;21.56
6132;BME280;3097;42.692;23.278;2023-04-28T06:28:33;95408.19;;;25.45;21.72
6132;BME280;3097;42.692;23.278;2023-04-28T06:30:58;95415.78;;;25.38;20.98
6132;BME280;3097;42.692;23.278;2023-04-28T06:33:24;95415.91;;;25.86;21.44
6132;BME280;3097;42.692;23.278;2023-04-28T06:35:50;95375.44;;;25.68;22.46
6132;BME280;3097;42.692;23.278;2023-04-28T06:38:16;95406.78;;;25.39;21.68
6132;BME280;3097;42.692;23.278;2023-04-28T06:40:41;95399.94;;;25.38;21.60
6132;BME280;3097;42.692;23.278;2023-04-28T06:43:06;95417.03;;;25.40;21.62
6132;BME280;3097;42.692;23.278;2023-04-28T06:45:32;95417.44;;;25.34;22.45
6132;BME280;3097;42.692;23.278;2023-04-28T06:47:57;95407.50;;;25.09;21.07
6132;BME280;3097;42.692;23.278;2023-04-28T06:50:23;95389.41;;;23.43;22.37
6132;BME280;3097;42.692;23.278;2023-04-28T06:52:48;95414.28;;;22.81;23.53
6132;BME280;3097;42.692;23.278;2023-04-28T06:55:15;95418.97;;;21.70;24.74
6132;BME280;3097;42.692;23.278;2023-04-28T06:57:41;95418.31;;;20.86;27.42
6132;BME280;3097;42.692;23.278;2023-04-28T07:00:07;95413.81;;;20.47;28.51
6132;BME280;3097;42.692;23.278;2023-04-28T07:02:33;95418.06;;;20.23;29.64
6132;BME280;3097;42.692;23.278;2023-04-28T07:04:59;95416.56;;;20.07;28.47
6132;BME280;3097;42.692;23.278;2023-04-28T07:07:24;95402.34;;;20.23;29.28
6132;BME280;3097;42.692;23.278;2023-04-28T07:09:50;95408.00;;;20.56;28.14
6132;BME280;3097;42.692;23.278;2023-04-28T07:12:17;95408.44;;;20.73;28.83
6132;BME280;3097;42.692;23.278;2023-04-28T07:14:43;95414.56;;;20.97;28.37
6132;BME280;3097;42.692;23.278;2023-04-28T07:17:08;95393.75;;;21.11;28.15
6132;BME280;3097;42.692;23.278;2023-04-28T07:19:34;95410.66;;;21.29;26.98
6132;BME280;3097;42.692;23.278;2023-04-28T07:21:59;95412.69;;;21.37;26.07
6132;BME280;3097;42.692;23.278;2023-04-28T07:24:25;95386.47;;;21.03;26.72
6132;BME280;3097;42.692;23.278;2023-04-28T07:26:51;95395.66;;;21.00;25.86
6132;BME280;3097;42.692;23.278;2023-04-28T07:29:17;95396.44;;;20.62;26.79
6132;BME280;3097;42.692;23.278;2023-04-28T07:31:42;95373.00;;;20.36;26.43
6132;BME280;3097;42.692;23.278;2023-04-28T07:34:08;95399.53;;;20.09;27.51
6132;BME280;3097;42.692;23.278;2023-04-28T07:36:33;95352.84;;;19.62;28.23
6132;BME280;3097;42.692;23.278;2023-04-28T07:38:59;95393.03;;;20.07;30.27
6132;BME280;3097;42.692;23.278;2023-04-28T07:41:26;95402.81;;;20.45;29.01
6132;BME280;3097;42.692;23.278;2023-04-28T07:43:52;95405.19;;;20.86;27.68
6132;BME280;3097;42.692;23.278;2023-04-28T07:46:17;95398.72;;;21.17;26.75
6132;BME280;3097;42.692;23.278;2023-04-28T07:48:43;95401.09;;;21.09;27.36
6132;BME280;3097;42.692;23.278;2023-04-28T07:51:08;95398.72;;;21.17;26.91
6132;BME280;3097;42.692;23.278;2023-04-28T07:53:34;95400.53;;;20.78;26.57
6132;BME280;3097;42.692;23.278;2023-04-28T07:56:00;95400.50;;;20.83;27.71
6132;BME280;3097;42.692;23.278;2023-04-28T07:58:26;95392.63;;;20.83;26.11
6132;BME280;3097;42.692;23.278;2023-04-28T08:00:51;95389.06;;;21.08;26.22
6132;BME280;3097;42.692;23.278;2023-04-28T08:03:17;95381.78;;;21.34;28.11
6132;BME280;3097;42.692;23.278;2023-04-28T08:05:42;95391.84;;;21.79;26.67
6132;BME280;3097;42.692;23.278;2023-04-28T08:08:09;95397.28;;;22.12;26.87
6132;BME280;3097;42.692;23.278;2023-04-28T08:10:34;95386.94;;;21.96;24.59
6132;BME280;3097;42.692;23.278;2023-04-28T08:13:00;95385.13;;;21.68;24.97
6132;BME280;3097;42.692;23.278;2023-04-28T08:15:25;95395.47;;;21.83;25.51
6132;BME280;3097;42.692;23.278;2023-04-28T08:17:52;95383.69;;;21.57;23.54
6132;BME280;3097;42.692;23.278;2023-04-28T08:20:18;95394.31;;;21.42;26.00
6132;BME280;3097;42.692;23.278;2023-04-28T08:22:44;95395.78;;;21.24;25.95
6132;BME280;3097;42.692;23.278;2023-04-28T08:25:10;95396.09;;;21.46;25.81
6132;BME280;3097;42.692;23.278;2023-04-28T08:27:37;95390.13;;;21.41;25.70
6132;BME280;3097;42.692;23.278;2023-04-28T08:30:06;95391.50;;;21.33;24.75
6132;BME280;3097;42.692;23.278;2023-04-28T08:32:31;95387.16;;;21.18;25.03
6132;BME280;3097;42.692;23.278;2023-04-28T08:34:57;95388.63;;;21.35;25.42
6132;BME280;3097;42.692;23.278;2023-04-28T08:37:22;95387.69;;;21.49;26.31
6132;BME280;3097;42.692;23.278;2023-04-28T08:39:48;95384.16;;;21.59;25.50
6132;BME280;3097;42.692;23.278;2023-04-28T08:42:13;95382.00;;;21.03;24.35
6132;BME280;3097;42.692;23.278;2023-04-28T08:44:39;95386.53;;;20.54;25.99
6132;BME280;3097;42.692;23.278;2023-04-28T08:47:12;95347.09;;;20.25;27.42
6132;BME280;3097;42.692;23.278;2023-04-28T08:49:39;95377.88;;;20.53;27.89
6132;BME280;3097;42.692;23.278;2023-04-28T08:52:10;95372.47;;;20.39;27.77
6132;BME280;3097;42.692;23.278;2023-04-28T08:54:37;95373.34;;;20.09;27.58
6132;BME280;3097;42.692;23.278;2023-04-28T08:57:03;95371.13;;;19.73;26.87
6132;BME280;3097;42.692;23.278;2023-04-28T08:59:29;95362.84;;;18.84;27.73
6132;BME280;3097;42.692;23.278;2023-04-28T09:01:55;95377.69;;;18.59;30.02
6132;BME280;3097;42.692;23.278;2023-04-28T09:04:21;95375.03;;;18.48;31.05
6132;BME280;3097;42.692;23.278;2023-04-28T09:06:46;95372.66;;;18.37;28.58
6132;BME280;3097;42.692;23.278;2023-04-28T09:11:58;95349.91;;;18.27;29.02
6132;BME280;3097;42.692;23.278;2023-04-28T09:14:33;95358.22;;;18.09;28.72
6132;BME280;3097;42.692;23.278;2023-04-28T09:16:59;95358.41;;;17.92;29.86
6132;BME280;3097;42.692;23.278;2023-04-28T09:19:35;95357.97;;;18.15;30.50
6132;BME280;3097;42.692;23.278;2023-04-28T09:22:02;95354.88;;;18.29;29.51
6132;BME280;3097;42.692;23.278;2023-04-28T09:24:32;95355.41;;;18.36;29.96
6132;BME280;3097;42.692;23.278;2023-04-28T09:26:59;95355.16;;;18.37;31.25
6132;BME280;3097;42.692;23.278;2023-04-28T09:29:26;95351.22;;;18.25;29.59
6132;BME280;3097;42.692;23.278;2023-04-28T09:31:52;95340.22;;;18.12;29.37
6132;BME280;3097;42.692;23.278;2023-04-28T09:34:19;95331.22;;;17.83;31.70
6132;BME280;3097;42.692;23.278;2023-04-28T09:36:44;95346.31;;;17.66;32.00
6132;BME280;3097;42.692;23.278;2023-04-28T09:39:10;95326.31;;;17.39;30.96
6132;BME280;3097;42.692;23.278;2023-04-28T09:44:15;95335.13;;;17.28;32.62
6132;BME280;3097;42.692;23.278;2023-04-28T09:46:45;95326.78;;;17.31;31.04
6132;BME280;3097;42.692;23.278;2023-04-28T09:49:11;95303.91;;;17.01;32.81
6132;BME280;3097;42.692;23.278;2023-04-28T09:51:37;95323.28;;;17.16;32.78
6132;BME280;3097;42.692;23.278;2023-04-28T09:54:04;95326.47;;;17.23;33.15
6132;BME280;3097;42.692;23.278;2023-04-28T09:56:31;95315.06;;;17.29;30.65
6132;BME280;3097;42.692;23.278;2023-04-28T09:58:58;95299.00;;;17.05;30.15
6132;BME280;3097;42.692;23.278;2023-04-28T10:01:37;95323.97;;;17.01;33.27
6132;BME280;3097;42.692;23.278;2023-04-28T10:04:04;95317.25;;;17.05;30.65
6132;BME280;3097;42.692;23.278;2023-04-28T10:06:33;95307.28;;;16.97;31.72
6132;BME280;3097;42.692;23.278;2023-04-28T10:09:00;95306.28;;;17.03;30.75
6132;BME280;3097;42.692;23.278;2023-04-28T10:11:27;95309.44;;;17.05;34.72
6132;BME280;3097;42.692;23.278;2023-04-28T10:13:53;95301.16;;;17.18;33.26
6132;BME280;3097;42.692;23.278;2023-04-28T10:16:19;95295.75;;;17.30;34.63
6132;BME280;3097;42.692;23.278;2023-04-28T10:18:45;95294.94;;;17.24;30.14
6132;BME280;3097;42.692;23.278;2023-04-28T10:21:15;95301.16;;;17.13;30.27
6132;BME280;3097;42.692;23.278;2023-04-28T10:24:06;95296.66;;;17.03;33.64
6132;BME280;3097;42.692;23.278;2023-04-28T10:29:29;95303.69;;;17.03;30.28
6132;BME280;3097;42.692;23.278;2023-04-28T10:32:20;95287.38;;;16.81;30.50
6132;BME280;3097;42.692;23.278;2023-04-28T10:34:47;95284.47;;;16.77;34.20
6132;BME280;3097;42.692;23.278;2023-04-28T10:37:13;95286.34;;;16.82;32.94
6132;BME280;3097;42.692;23.278;2023-04-28T10:42:52;95281.06;;;16.72;30.55
6132;BME280;3097;42.692;23.278;2023-04-28T10:58:36;95262.56;;;16.41;32.12
6132;BME280;3097;42.692;23.278;2023-04-28T11:06:31;95246.16;;;16.41;33.11
6132;BME280;3097;42.692;23.278;2023-04-28T11:16:56;95246.81;;;16.26;30.08
6132;BME280;3097;42.692;23.278;2023-04-28T11:19:33;95237.53;;;16.35;32.03
6132;BME280;3097;42.692;23.278;2023-04-28T11:22:01;95214.22;;;16.18;31.97
6132;BME280;3097;42.692;23.278;2023-04-28T11:24:28;95230.53;;;16.36;30.70
6132;BME280;3097;42.692;23.278;2023-04-28T11:26:54;95236.38;;;16.21;30.43
6132;BME280;3097;42.692;23.278;2023-04-28T11:29:34;95231.78;;;16.33;33.19
6132;BME280;3097;42.692;23.278;2023-04-28T11:32:01;95226.94;;;16.47;32.70
6132;BME280;3097;42.692;23.278;2023-04-28T11:34:27;95227.78;;;16.52;32.20
6132;BME280;3097;42.692;23.278;2023-04-28T11:36:53;95203.25;;;16.43;32.84
6132;BME280;3097;42.692;23.278;2023-04-28T11:39:25;95213.44;;;16.50;32.79
6132;BME280;3097;42.692;23.278;2023-04-28T11:41:53;95217.66;;;16.56;30.82
6132;BME280;3097;42.692;23.278;2023-04-28T11:44:21;95225.81;;;16.64;31.47
6132;BME280;3097;42.692;23.278;2023-04-28T11:46:53;95210.75;;;16.72;33.41
6132;BME280;3097;42.692;23.278;2023-04-28T11:49:30;95207.91;;;16.73;33.32
6132;BME280;3097;42.692;23.278;2023-04-28T11:52:03;95189.78;;;16.88;32.96
6132;BME280;3097;42.692;23.278;2023-04-28T11:54:28;95198.16;;;16.95;30.92
6132;BME280;3097;42.692;23.278;2023-04-28T11:56:55;95207.84;;;17.05;31.70
6132;BME280;3097;42.692;23.278;2023-04-28T11:59:26;95197.94;;;17.07;29.53
6132;BME280;3097;42.692;23.278;2023-04-28T12:01:53;95197.91;;;17.02;30.92
6132;BME280;3097;42.692;23.278;2023-04-28T12:04:30;95191.19;;;17.06;30.45
6132;BME280;3097;42.692;23.278;2023-04-28T12:07:14;95192.22;;;17.05;30.04
6132;BME280;3097;42.692;23.278;2023-04-28T12:09:41;95190.59;;;16.99;30.48
6132;BME280;3097;42.692;23.278;2023-04-28T12:12:20;95192.22;;;17.05;31.58
6132;BME280;3097;42.692;23.278;2023-04-28T12:14:56;95149.91;;;16.83;30.21
6132;BME280;3097;42.692;23.278;2023-04-28T12:19:49;95184.66;;;17.09;31.95
6132;BME280;3097;42.692;23.278;2023-04-28T12:22:14;95174.78;;;17.16;28.60
6132;BME280;3097;42.692;23.278;2023-04-28T12:24:41;95173.50;;;17.13;29.57
6132;BME280;3097;42.692;23.278;2023-04-28T12:27:18;95134.31;;;16.93;30.72
6132;BME280;3097;42.692;23.278;2023-04-28T12:29:52;94969.81;;;15.86;30.33
6132;BME280;3097;42.692;23.278;2023-04-28T12:32:18;95171.44;;;17.25;30.21
6132;BME280;3097;42.692;23.278;2023-04-28T12:34:47;95150.91;;;17.29;31.08
6132;BME280;3097;42.692;23.278;2023-04-28T12:37:14;95154.81;;;17.36;29.97
6132;BME280;3097;42.692;23.278;2023-04-28T12:39:41;95154.28;;;17.34;30.04
6132;BME280;3097;42.692;23.278;2023-04-28T12:42:06;95136.56;;;17.31;29.63
6132;BME280;3097;42.692;23.278;2023-04-28T12:44:33;95155.56;;;17.37;30.58
6132;BME280;3097;42.692;23.278;2023-04-28T12:47:06;95149.03;;;17.29;30.68
6132;BME280;3097;42.692;23.278;2023-04-28T12:49:33;95151.88;;;17.23;30.90
6132;BME280;3097;42.692;23.278;2023-04-28T12:51:59;95138.66;;;17.39;29.85
6132;BME280;3097;42.692;23.278;2023-04-28T12:54:25;95146.22;;;17.36;30.86
6132;BME280;3097;42.692;23.278;2023-04-28T12:56:51;95148.53;;;17.37;30.70
6132;BME280;3097;42.692;23.278;2023-04-28T12:59:16;95129.81;;;17.35;29.43
6132;BME280;3097;42.692;23.278;2023-04-28T13:01:42;95136.25;;;17.18;31.00
6132;BME280;3097;42.692;23.278;2023-04-28T13:04:08;95122.44;;;17.17;31.71
6132;BME280;3097;42.692;23.278;2023-04-28T13:06:34;95128.47;;;17.33;31.10
6132;BME280;3097;42.692;23.278;2023-04-28T13:08:59;95103.41;;;17.17;30.96
6132;BME280;3097;42.692;23.278;2023-04-28T13:11:25;95120.66;;;17.38;31.39
6132;BME280;3097;42.692;23.278;2023-04-28T13:13:52;95120.13;;;17.31;31.02
6132;BME280;3097;42.692;23.278;2023-04-28T13:16:18;95119.91;;;17.48;30.69
6132;BME280;3097;42.692;23.278;2023-04-28T13:18:43;95121.47;;;17.44;30.71
6132;BME280;3097;42.692;23.278;2023-04-28T13:21:08;95125.63;;;17.34;31.68
6132;BME280;3097;42.692;23.278;2023-04-28T13:23:34;95111.78;;;17.19;31.10
6132;BME280;3097;42.692;23.278;2023-04-28T13:26:00;95125.09;;;17.27;31.30
6132;BME280;3097;42.692;23.278;2023-04-28T13:28:27;95125.03;;;17.17;30.28
6132;BME280;3097;42.692;23.278;2023-04-28T13:30:52;95116.69;;;17.05;31.09
6132;BME280;3097;42.692;23.278;2023-04-28T13:33:18;95114.81;;;17.00;31.12
6132;BME280;3097;42.692;23.278;2023-04-28T13:35:43;95111.72;;;17.09;30.91
6132;BME280;3097;42.692;23.278;2023-04-28T13:38:09;95100.81;;;17.12;31.38
6132;BME280;3097;42.692;23.278;2023-04-28T13:40:34;95116.44;;;17.22;31.49
6132;BME280;3097;42.692;23.278;2023-04-28T13:43:00;95121.44;;;17.38;30.60
6132;BME280;3097;42.692;23.278;2023-04-28T13:45:25;95113.88;;;17.37;29.77
6132;BME280;3097;42.692;23.278;2023-04-28T13:47:53;95091.72;;;17.29;29.84
6132;BME280;3097;42.692;23.278;2023-04-28T13:50:18;95099.56;;;17.39;29.58
6132;BME280;3097;42.692;23.278;2023-04-28T13:52:44;95098.81;;;17.44;29.53